Time;durP1;ratioP1;P1;durP2;ratioP2;P2;SDS_P1;SDS_P2;PMS_P1;PMS_P2;Temp;Humidity;BMP_temperature;BMP_pressure;BME280_temperature;BME280_humidity;BME280_pressure;Samples;Min_cycle;Max_cycle;Signal;HPM_P1;HPM_P2
2022/05/31 00:02:14;;;;;;;5.80;5.30;;;9.00;99.90;;;9.82;77.85;97549.06;5149076;28;20229;-55
2022/05/31 00:04:47;;;;;;;5.90;5.37;;;9.10;99.90;;;9.85;77.71;97548.34;5120642;28;20291;-52
2022/05/31 00:07:21;;;;;;;5.00;4.60;;;9.20;99.90;;;9.85;77.99;97551.78;5134266;28;20324;-53
2022/05/31 00:09:54;;;;;;;5.60;5.20;;;9.20;99.90;;;9.78;77.02;97549.69;5124435;28;20295;-56
2022/05/31 00:12:27;;;;;;;5.57;5.13;;;9.10;99.90;;;9.76;76.60;97541.06;5124324;28;20209;-54
2022/05/31 00:15:01;;;;;;;6.23;5.73;;;9.00;99.90;;;9.68;76.81;97549.97;5130031;28;20546;-55
2022/05/31 00:17:35;;;;;;;5.77;5.27;;;9.00;99.90;;;9.68;78.02;97545.75;5153134;28;20306;-55
2022/05/31 00:20:11;;;;;;;5.87;5.37;;;9.00;99.90;;;9.72;79.48;97530.59;5121763;28;20590;-53
2022/05/31 00:22:46;;;;;;;5.70;5.23;;;9.10;99.90;;;9.78;78.47;97541.16;5142805;28;20197;-56
2022/05/31 00:25:20;;;;;;;5.10;4.70;;;9.10;99.90;;;9.81;78.02;97541.31;5134076;28;20577;-56
2022/05/31 00:27:53;;;;;;;6.50;5.90;;;9.10;99.90;;;9.84;79.52;97539.81;5122981;28;20278;-56
2022/05/31 00:30:26;;;;;;;5.30;4.90;;;9.10;99.90;;;9.85;78.58;97535.59;5135988;28;20278;-53
2022/05/31 00:33:00;;;;;;;5.83;5.43;;;9.10;99.90;;;9.83;80.13;97532.06;5139204;28;20204;-54
2022/05/31 00:35:42;;;;;;;5.93;5.33;;;9.10;99.90;;;9.79;80.84;97525.06;5153286;28;20199;-55
2022/05/31 00:38:17;;;;;;;5.67;5.17;;;9.10;99.90;;;9.82;80.79;97531.19;5151597;28;20706;-55
2022/05/31 00:40:50;;;;;;;5.53;5.10;;;9.10;99.90;;;9.86;79.74;97530.56;5123867;28;20223;-54
2022/05/31 00:43:25;;;;;;;5.50;5.07;;;9.20;99.90;;;9.86;78.96;97530.56;5121135;28;20698;-55
2022/05/31 00:46:02;;;;;;;6.10;5.50;;;9.10;99.90;;;9.81;80.11;97524.31;5136372;28;20566;-55
2022/05/31 00:48:40;;;;;;;5.23;4.83;;;9.10;99.90;;;9.79;78.92;97528.47;5150274;28;20303;-55
2022/05/31 00:51:18;;;;;;;6.37;5.07;;;9.10;99.90;;;9.77;77.93;97530.06;5121576;28;20236;-57
2022/05/31 00:53:56;;;;;;;5.93;5.30;;;9.00;99.90;;;9.77;79.69;97530.06;5150152;28;20690;-53
2022/05/31 00:56:31;;;;;;;4.77;4.47;;;9.00;99.90;;;9.76;78.94;97527.41;5145340;28;20340;-54
2022/05/31 00:59:09;;;;;;;5.53;5.13;;;9.00;99.90;;;9.65;79.57;97524.31;5150534;28;20208;-53
2022/05/31 01:01:47;;;;;;;5.40;5.00;;;8.90;99.90;;;9.60;80.40;97520.59;5130872;28;20322;-54
2022/05/31 01:04:26;;;;;;;5.47;4.77;;;8.90;99.90;;;9.58;80.18;97528.16;5152846;28;20205;-56
2022/05/31 01:07:02;;;;;;;5.57;5.07;;;8.90;99.90;;;9.55;79.79;97532.22;5138667;28;20305;-54
2022/05/31 01:09:37;;;;;;;5.80;5.40;;;8.80;99.90;;;9.50;80.67;97526.88;5141559;28;20276;-52
2022/05/31 01:12:11;;;;;;;5.90;5.30;;;8.70;99.90;;;9.48;80.30;97528.47;5128112;28;20200;-52
2022/05/31 01:14:44;;;;;;;5.63;5.10;;;8.70;99.90;;;9.47;79.96;97524.13;5129534;28;20247;-55
2022/05/31 01:17:20;;;;;;;5.57;5.17;;;8.70;99.90;;;9.41;79.80;97527.25;5160814;28;20224;-52
2022/05/31 01:19:59;;;;;;;5.30;4.90;;;8.60;99.90;;;9.41;80.18;97534.00;5123875;28;20232;-52
2022/05/31 01:22:39;;;;;;;6.00;5.60;;;8.60;99.90;;;9.34;80.23;97525.13;5119045;28;20208;-55
2022/05/31 01:25:30;;;;;;;5.87;5.47;;;8.50;99.90;;;9.32;79.90;97531.81;5156152;28;20208;-52
2022/05/31 01:28:14;;;;;;;5.53;5.03;;;8.50;99.90;;;9.29;80.68;97529.09;5136213;28;20757;-52
2022/05/31 01:30:59;;;;;;;5.80;5.30;;;8.50;99.90;;;9.23;80.65;97526.19;5137505;28;20243;-53
2022/05/31 01:33:39;;;;;;;6.47;5.20;;;8.50;99.90;;;9.19;81.18;97524.28;5151052;28;20236;-56
2022/05/31 01:36:18;;;;;;;5.57;5.10;;;8.40;99.90;;;9.10;81.66;97533.94;5123385;28;20211;-53
2022/05/31 01:38:59;;;;;;;5.83;5.33;;;8.40;99.90;;;9.08;80.34;97527.88;5127027;28;20204;-56
2022/05/31 01:41:37;;;;;;;5.70;5.30;;;8.20;99.90;;;9.03;80.57;97525.94;5125115;28;20251;-56
2022/05/31 01:44:15;;;;;;;5.53;5.03;;;8.20;99.90;;;9.01;80.84;97526.63;5140500;28;20192;-56
2022/05/31 01:46:52;;;;;;;5.10;4.80;;;8.20;99.90;;;8.98;81.17;97523.91;5133462;28;20252;-56
2022/05/31 01:49:36;;;;;;;5.17;4.67;;;8.20;99.90;;;8.92;81.93;97521.88;5136837;28;20247;-52
2022/05/31 01:52:11;;;;;;;5.60;5.20;;;8.20;99.90;;;8.90;81.63;97523.50;5138692;28;20235;-52
2022/05/31 01:54:47;;;;;;;5.10;4.70;;;8.10;99.90;;;8.89;81.07;97526.81;5119538;28;20204;-55
2022/05/31 01:57:22;;;;;;;5.77;5.37;;;8.10;99.90;;;8.92;81.32;97531.22;5138457;28;20244;-52
2022/05/31 02:00:01;;;;;;;5.13;4.70;;;8.10;99.90;;;8.87;81.20;97532.59;5139993;28;20679;-53
2022/05/31 02:02:34;;;;;;;5.77;5.37;;;8.00;99.90;;;8.80;81.18;97531.38;5145154;28;20228;-54
2022/05/31 02:05:09;;;;;;;5.60;5.20;;;7.90;99.90;;;8.48;81.07;97535.47;5128314;28;20197;-54
2022/05/31 02:07:42;;;;;;;5.53;5.03;;;7.80;99.90;;;8.54;82.22;97535.81;5140486;28;20251;-55
2022/05/31 02:10:16;;;;;;;5.87;5.37;;;7.70;99.90;;;8.54;83.26;97540.91;5135938;28;20212;-54
2022/05/31 02:12:50;;;;;;;4.97;4.67;;;7.80;99.90;;;8.54;82.96;97538.38;5129921;28;20241;-53
2022/05/31 02:15:25;;;;;;;4.87;4.57;;;7.80;99.90;;;8.49;82.83;97534.66;5140220;28;20283;-50
2022/05/31 02:17:58;;;;;;;5.30;4.90;;;7.80;99.90;;;8.45;82.03;97534.41;5148972;28;20566;-56
2022/05/31 02:20:31;;;;;;;6.87;6.27;;;7.70;99.90;;;8.41;82.21;97538.41;5142315;28;20205;-49
2022/05/31 02:23:04;;;;;;;5.47;5.03;;;7.60;99.90;;;8.44;82.63;97541.16;5168188;28;21946;-52
2022/05/31 02:25:40;;;;;;;5.07;4.77;;;7.60;99.90;;;8.31;82.53;97533.53;5144560;28;20240;-49
2022/05/31 02:28:13;;;;;;;5.73;5.33;;;7.50;99.90;;;8.27;82.63;97537.56;5131086;28;20235;-53
2022/05/31 02:30:46;;;;;;;6.47;5.90;;;7.50;99.90;;;8.24;83.64;97528.84;5145085;28;20283;-52
2022/05/31 02:33:19;;;;;;;6.33;5.80;;;7.50;99.90;;;8.22;84.11;97530.44;5135726;28;20240;-51
2022/05/31 02:35:52;;;;;;;5.43;5.03;;;7.50;99.90;;;8.23;83.45;97527.09;5156477;28;20197;-49
2022/05/31 02:38:25;;;;;;;5.90;5.40;;;7.50;99.90;;;8.19;83.69;97523.50;5155376;28;20590;-54
2022/05/31 02:40:59;;;;;;;5.60;5.27;;;7.50;99.90;;;8.22;83.54;97515.16;5151901;28;20640;-51
2022/05/31 02:43:32;;;;;;;5.40;5.10;;;7.50;99.90;;;8.24;84.39;97505.94;5126796;28;20204;-52
2022/05/31 02:46:06;;;;;;;5.90;5.40;;;7.60;99.90;;;8.29;84.55;97510.50;5137299;28;20212;-52
2022/05/31 02:48:39;;;;;;;6.37;5.60;;;7.60;99.90;;;8.27;83.14;97506.13;5142444;28;20220;-49
2022/05/31 02:51:12;;;;;;;5.40;5.00;;;7.60;99.90;;;8.32;83.89;97512.38;5141545;28;20231;-49
2022/05/31 02:53:45;;;;;;;5.57;5.17;;;7.60;99.90;;;8.35;83.18;97505.81;5150893;28;20646;-51
2022/05/31 02:56:20;;;;;;;5.83;5.43;;;7.60;99.90;;;8.29;82.59;97507.97;5140078;28;20351;-52
2022/05/31 02:58:53;;;;;;;5.10;4.80;;;7.50;99.90;;;8.14;82.74;97504.50;5118841;28;20192;-48
2022/05/31 03:01:30;;;;;;;5.70;5.23;;;7.40;99.90;;;8.13;83.63;97506.19;5141182;28;20221;-52
2022/05/31 03:04:04;;;;;;;5.97;5.57;;;7.50;99.90;;;8.13;83.36;97503.63;5118940;28;20205;-54
2022/05/31 03:06:37;;;;;;;5.67;5.27;;;7.40;99.90;;;8.17;83.25;97504.69;5135196;28;20696;-51
2022/05/31 03:09:11;;;;;;;5.73;5.33;;;7.50;99.90;;;8.24;83.75;97500.84;5136032;28;20205;-49
2022/05/31 03:11:51;;;;;;;5.53;5.03;;;7.60;99.90;;;8.26;83.22;97497.59;5158291;28;20275;-49
2022/05/31 03:14:30;;;;;;;5.53;5.07;;;7.60;99.90;;;8.25;83.12;97503.50;5128035;28;20239;-50
2022/05/31 03:17:10;;;;;;;5.83;5.43;;;7.60;99.90;;;8.30;84.24;97513.97;5144847;28;20248;-51
2022/05/31 03:19:48;;;;;;;5.93;5.43;;;7.60;99.90;;;8.45;84.64;97512.34;5151671;28;20657;-50
2022/05/31 03:22:28;;;;;;;5.83;5.43;;;7.70;99.90;;;8.46;84.86;97523.41;5121518;28;20278;-50
2022/05/31 03:25:06;;;;;;;5.80;5.27;;;7.80;99.90;;;8.45;84.39;97526.75;5139155;28;20225;-53
2022/05/31 03:27:40;;;;;;;5.57;5.17;;;7.80;99.90;;;8.47;83.82;97520.97;5157899;28;20240;-53
2022/05/31 03:30:15;;;;;;;5.60;5.20;;;7.80;99.90;;;8.40;83.81;97517.97;5118945;28;20204;-54
2022/05/31 03:32:48;;;;;;;6.20;5.80;;;7.70;99.90;;;8.32;83.60;97515.78;5146544;28;20212;-57
2022/05/31 03:35:21;;;;;;;6.17;5.77;;;7.60;99.90;;;8.38;82.97;97520.38;5161983;28;20205;-50
2022/05/31 03:37:55;;;;;;;6.23;5.73;;;7.70;99.90;;;8.30;83.08;97526.69;5115448;28;20255;-49
2022/05/31 03:43:20;;;;;;;6.53;6.13;;;7.60;99.90;;;8.35;83.71;97522.72;5130525;28;20264;-49
2022/05/31 03:45:53;;;;;;;5.57;5.17;;;7.70;99.90;;;8.37;83.43;97528.81;5134746;28;20192;-50
2022/05/31 03:48:27;;;;;;;9.93;8.97;;;7.70;99.90;;;8.42;83.61;97526.59;5141607;28;20302;-52
2022/05/31 03:51:02;;;;;;;13.10;11.73;;;7.70;99.90;;;8.47;84.74;97532.81;5127121;28;20197;-50
2022/05/31 03:53:36;;;;;;;21.20;18.93;;;7.80;99.90;;;8.62;84.39;97530.31;5127616;28;20667;-57
2022/05/31 03:56:13;;;;;;;30.00;19.67;;;8.00;99.90;;;8.63;84.12;97524.41;5144705;28;20205;-51
2022/05/31 03:58:48;;;;;;;27.30;16.70;;;8.00;99.90;;;8.65;84.04;97517.75;5115334;28;20197;-55
2022/05/31 04:01:21;;;;;;;20.87;13.87;;;8.00;99.90;;;8.65;83.77;97515.22;5118931;28;20676;-52
2022/05/31 04:03:54;;;;;;;16.50;10.57;;;8.00;99.90;;;8.70;83.58;97521.44;5122118;28;20658;-53
2022/05/31 04:06:27;;;;;;;8.90;7.80;;;8.00;99.90;;;8.75;83.00;97512.38;5123498;28;20665;-55
2022/05/31 04:09:01;;;;;;;5.70;5.27;;;8.00;99.90;;;8.74;82.44;97520.84;5125766;28;20235;-53
2022/05/31 04:11:34;;;;;;;5.70;5.30;;;8.00;99.90;;;8.79;81.98;97522.00;5142696;28;20275;-56
2022/05/31 04:14:09;;;;;;;4.80;4.40;;;8.00;99.90;;;8.78;82.37;97522.75;5130411;28;20662;-56
2022/05/31 04:16:42;;;;;;;5.10;4.70;;;8.00;99.90;;;8.71;81.71;97523.22;5173454;28;20696;-54
2022/05/31 04:19:15;;;;;;;5.23;4.83;;;7.90;99.90;;;8.75;81.75;97522.59;5150354;28;20564;-55
2022/05/31 04:21:48;;;;;;;6.83;6.23;;;8.00;99.90;;;8.78;82.64;97521.13;5131775;28;20323;-56
2022/05/31 04:24:22;;;;;;;26.83;19.97;;;8.00;99.90;;;9.12;80.03;97528.13;5149172;28;20303;-52
2022/05/31 04:26:55;;;;;;;28.87;21.00;;;8.20;99.90;;;9.03;81.20;97531.03;5120915;28;20750;-53
2022/05/31 04:29:29;;;;;;;21.33;16.60;;;8.30;99.90;;;8.96;81.08;97521.28;5142142;28;20258;-52
2022/05/31 04:32:03;;;;;;;19.60;16.10;;;8.20;99.90;;;8.98;82.29;97522.25;5138885;28;20196;-52
2022/05/31 04:34:36;;;;;;;12.30;10.77;;;8.20;99.90;;;8.96;81.91;97517.88;5123469;28;20676;-55
2022/05/31 04:37:09;;;;;;;5.97;5.37;;;8.20;99.90;;;8.89;81.58;97514.06;5118735;28;20245;-54
2022/05/31 04:39:42;;;;;;;6.13;5.63;;;8.10;99.90;;;8.90;82.81;97517.50;5114334;28;20629;-57
2022/05/31 04:42:16;;;;;;;5.63;5.13;;;8.10;99.90;;;8.90;84.25;97518.41;5128539;28;20248;-55
2022/05/31 04:44:52;;;;;;;5.40;5.00;;;8.20;99.90;;;8.97;84.11;97512.84;5144221;28;20235;-55
2022/05/31 04:47:26;;;;;;;6.20;5.60;;;8.20;99.90;;;8.99;83.78;97516.38;5119699;28;20669;-52
2022/05/31 04:49:59;;;;;;;5.43;4.93;;;8.20;99.90;;;9.00;82.50;97515.56;5131483;28;20274;-55
2022/05/31 04:52:32;;;;;;;5.50;5.10;;;8.20;99.90;;;9.13;81.76;97509.50;5137409;28;20288;-54
2022/05/31 04:55:06;;;;;;;5.90;5.40;;;8.30;99.90;;;9.53;81.22;97523.59;5131608;28;20258;-54
2022/05/31 04:57:39;;;;;;;4.87;4.53;;;8.70;99.90;;;10.24;77.96;97513.84;5137859;28;20300;-54
2022/05/31 05:00:15;;;;;;;4.57;4.17;;;9.50;99.90;;;11.01;73.78;97512.69;5132420;28;20239;-57
2022/05/31 05:02:48;;;;;;;4.60;4.30;;;10.20;99.90;;;11.73;71.29;97504.25;5143689;28;20313;-59
2022/05/31 05:05:22;;;;;;;3.80;3.50;;;10.80;99.90;;;12.56;68.03;97502.88;5151161;28;20625;-58
2022/05/31 05:07:55;;;;;;;4.27;3.97;;;11.50;99.90;;;13.14;65.34;97496.75;5126868;28;20232;-59
2022/05/31 05:10:28;;;;;;;4.20;3.90;;;11.90;99.90;;;13.45;63.19;97491.22;5121084;28;20747;-58
2022/05/31 05:13:01;;;;;;;4.75;4.32;;;12.10;99.90;;;13.89;61.91;97489.47;5133125;28;20718;-58
2022/05/31 05:15:39;;;;;;;4.28;3.95;;;12.50;99.90;;;14.12;61.84;97481.75;5125316;28;20225;-59
2022/05/31 05:18:13;;;;;;;4.25;3.95;;;12.70;99.90;;;14.64;60.46;97488.81;5119098;28;20718;-52
2022/05/31 05:20:46;;;;;;;3.70;3.42;;;13.10;99.90;;;15.00;59.36;97489.22;5120716;28;20201;-52
2022/05/31 05:23:19;;;;;;;3.80;3.55;;;13.50;99.90;;;15.39;56.50;97493.03;5124864;28;20304;-60
2022/05/31 05:25:56;;;;;;;3.63;3.33;;;13.80;99.90;;;15.81;55.47;97495.25;5121788;28;20630;-56
2022/05/31 05:31:25;;;;;;;3.60;3.30;;;14.10;99.90;;;15.99;54.49;97494.13;5119513;28;20213;-59
2022/05/31 05:34:00;;;;;;;3.75;3.50;;;14.10;99.30;;;16.11;54.42;97488.44;5113428;28;20197;-58
2022/05/31 05:36:33;;;;;;;3.80;3.50;;;14.20;99.50;;;16.51;53.96;97483.50;5121341;28;20510;-59
2022/05/31 05:39:10;;;;;;;3.70;3.40;;;14.50;99.50;;;16.39;54.46;97481.47;5113391;28;20225;-59
2022/05/31 05:41:43;;;;;;;3.70;3.40;;;14.40;99.40;;;15.99;53.54;97472.59;5139969;28;20201;-59
2022/05/31 05:44:16;;;;;;;3.58;3.38;;;14.00;99.00;;;15.75;55.07;97471.03;5120588;28;20316;-60
2022/05/31 05:46:51;;;;;;;3.38;3.17;;;13.70;99.90;;;15.56;57.57;97478.97;5122715;28;20283;-59
2022/05/31 05:49:24;;;;;;;3.88;3.47;;;13.80;99.90;;;15.93;56.96;97478.44;5123797;28;20672;-58
2022/05/31 05:51:59;;;;;;;3.63;3.33;;;14.20;99.90;;;15.90;56.08;97482.63;5151105;28;20252;-59
2022/05/31 05:54:32;;;;;;;3.80;3.50;;;14.10;99.90;;;15.52;56.98;97474.56;5131773;28;20270;-60
2022/05/31 05:57:06;;;;;;;3.53;3.33;;;13.80;99.90;;;15.47;58.42;97482.16;5122536;28;20216;-59
2022/05/31 05:59:39;;;;;;;4.03;3.40;;;13.70;99.90;;;15.76;58.55;97470.19;5120860;28;20351;-59
2022/05/31 06:02:19;;;;;;;4.15;3.78;;;14.00;99.90;;;16.49;55.78;97473.16;5119672;28;20296;-59
2022/05/31 06:05:17;;;;;;;4.38;4.05;;;14.60;99.90;;;16.64;54.35;97478.75;5117765;28;20244;-58
2022/05/31 06:07:56;;;;;;;3.70;3.50;;;14.90;99.30;;;16.67;54.44;97481.41;5118740;28;20255;-59
2022/05/31 06:10:35;;;;;;;3.75;3.45;;;14.80;99.20;;;16.47;54.26;97484.28;5130290;28;20220;-59
2022/05/31 06:13:14;;;;;;;3.63;3.33;;;14.70;99.30;;;16.13;54.89;97480.72;5120295;28;20282;-60
2022/05/31 06:15:51;;;;;;;3.75;3.40;;;14.30;99.20;;;15.75;55.88;97478.75;5123202;28;20235;-60
2022/05/31 06:18:31;;;;;;;3.80;3.50;;;14.10;99.70;;;15.65;57.36;97470.66;5123032;28;20232;-59
2022/05/31 06:21:07;;;;;;;4.22;3.55;;;13.90;99.90;;;15.67;58.37;97477.63;5119280;28;20254;-58
2022/05/31 06:23:42;;;;;;;3.92;3.63;;;14.00;99.90;;;15.76;58.96;97475.34;5119820;28;20244;-59
2022/05/31 06:26:15;;;;;;;3.60;3.40;;;14.20;99.90;;;16.15;58.79;97472.22;5121004;28;20656;-59
2022/05/31 06:28:48;;;;;;;3.45;3.15;;;14.70;99.90;;;16.60;57.88;97469.19;5118454;28;20232;-59
2022/05/31 06:31:21;;;;;;;3.80;3.50;;;15.10;99.90;;;16.88;58.01;97472.50;5119605;28;20635;-60
2022/05/31 06:33:55;;;;;;;3.13;2.92;;;15.50;99.90;;;17.14;55.35;97483.53;5119330;28;20197;-60
2022/05/31 06:36:28;;;;;;;3.47;3.17;;;15.80;99.50;;;17.34;55.91;97471.97;5119399;28;20200;-59
2022/05/31 06:39:01;;;;;;;4.53;4.03;;;15.90;99.70;;;17.62;54.74;97476.91;5113240;28;20304;-59
2022/05/31 06:41:34;;;;;;;4.50;3.60;;;16.00;99.00;;;17.69;54.57;97471.06;5119702;28;20232;-60
2022/05/31 06:44:08;;;;;;;4.10;3.70;;;16.10;99.10;;;17.94;54.37;97472.47;5123268;28;20228;-59
2022/05/31 06:46:41;;;;;;;3.60;3.30;;;16.40;98.90;;;18.22;54.29;97471.34;5117306;28;20252;-60
2022/05/31 06:49:15;;;;;;;3.63;3.33;;;16.60;98.90;;;18.68;53.24;97469.66;5161710;28;20566;-60
2022/05/31 06:57:31;;;;;;;3.97;3.13;;;17.70;97.00;;;19.55;51.06;97475.53;5151072;28;20220;-60
2022/05/31 07:00:07;;;;;;;3.97;3.42;;;18.00;96.60;;;19.68;50.70;97472.28;5124221;28;20205;-60
2022/05/31 07:02:40;;;;;;;3.75;3.45;;;18.10;96.40;;;19.68;51.67;97471.41;5138431;28;20259;-60
2022/05/31 07:05:16;;;;;;;3.72;3.13;;;18.10;96.90;;;19.40;50.84;97472.69;5160442;28;20256;-60
2022/05/31 07:07:52;;;;;;;2.70;2.50;;;17.80;96.10;;;19.56;50.64;97472.94;5154489;28;20704;-60
2022/05/31 07:10:25;;;;;;;2.50;2.30;;;18.00;96.00;;;19.65;50.09;97472.25;5135773;28;20228;-60
2022/05/31 07:12:58;;;;;;;3.08;2.75;;;18.30;95.30;;;20.02;49.94;97472.78;5157243;28;20200;-61
2022/05/31 07:15:32;;;;;;;2.67;2.45;;;18.80;95.20;;;20.70;45.84;97467.56;5122520;28;20560;-59
2022/05/31 07:18:25;;;;;;;2.97;2.55;;;19.40;92.30;;;20.78;45.51;97456.41;5172112;28;20316;-60
2022/05/31 07:20:59;;;;;;;2.90;2.65;;;19.40;92.20;;;21.13;45.73;97456.75;5179157;28;20239;-59
2022/05/31 07:23:32;;;;;;;3.08;2.30;;;19.50;92.50;;;21.80;45.01;97440.78;5169726;28;20251;-60
2022/05/31 07:26:05;;;;;;;2.60;2.40;;;20.30;92.20;;;22.59;43.24;97439.44;5167929;28;20228;-61
2022/05/31 07:28:58;;;;;;;1.83;1.73;;;21.20;90.50;;;23.11;40.20;97440.41;5125861;28;20200;-60
2022/05/31 07:31:32;;;;;;;2.03;1.90;;;21.80;85.10;;;23.34;38.54;97429.97;5135752;28;20232;-61
2022/05/31 07:34:06;;;;;;;1.63;1.52;;;22.00;82.80;;;23.53;36.81;97419.53;5150121;28;20278;-61
2022/05/31 07:36:41;;;;;;;1.95;1.77;;;22.10;79.60;;;23.21;38.34;97427.38;5133388;28;20593;-58
2022/05/31 07:39:17;;;;;;;2.63;1.90;;;21.80;81.50;;;23.43;37.27;97428.25;5140056;28;20722;-55
2022/05/31 07:41:52;;;;;;;2.00;1.90;;;22.00;79.90;;;23.44;38.43;97436.06;5162355;28;20287;-58
2022/05/31 07:44:26;;;;;;;1.92;1.83;;;21.90;81.90;;;23.75;36.33;97431.72;5137016;28;20228;-55
2022/05/31 07:47:01;;;;;;;2.22;1.55;;;22.10;78.90;;;23.69;35.89;97421.22;5157161;28;20217;-58
2022/05/31 07:49:34;;;;;;;1.48;1.40;;;22.00;78.50;;;23.92;35.24;97421.25;5181065;28;20243;-58
2022/05/31 07:52:12;;;;;;;2.90;1.80;;;22.20;77.90;;;24.04;35.45;97420.31;5167288;28;20235;-58
2022/05/31 07:54:45;;;;;;;1.75;1.65;;;22.40;77.10;;;24.33;35.30;97416.72;5164368;28;20682;-58
2022/05/31 08:00:10;;;;;;;1.80;1.58;;;22.90;78.00;;;25.07;34.14;97415.44;5136234;28;20652;-56
2022/05/31 08:02:43;;;;;;;1.35;1.20;;;23.30;75.60;;;25.16;32.58;97415.38;5171254;28;20199;-59
2022/05/31 08:05:17;;;;;;;1.42;1.30;;;23.50;72.30;;;25.33;32.14;97430.09;5179774;28;20220;-59
2022/05/31 08:07:51;;;;;;;1.92;1.50;;;23.80;71.00;;;25.78;31.79;97420.03;5160635;28;20244;-59
2022/05/31 08:10:44;;;;;;;1.50;1.40;;;24.10;70.70;;;25.97;29.80;97426.84;5140776;28;20279;-60
2022/05/31 08:13:17;;;;;;;2.53;1.38;;;24.30;67.50;;;25.63;31.56;97416.69;5145422;28;20200;-59
2022/05/31 08:15:51;;;;;;;1.38;1.20;;;24.10;69.40;;;25.55;31.96;97423.78;5155372;28;20232;-60
2022/05/31 08:18:24;;;;;;;1.75;1.45;;;24.00;70.00;;;25.34;32.38;97432.66;5164160;28;20232;-59
2022/05/31 08:21:01;;;;;;;1.52;1.30;;;24.00;70.20;;;25.24;32.04;97417.06;5168288;28;20219;-60
2022/05/31 08:23:36;;;;;;;1.75;1.60;;;24.10;69.10;;;25.00;32.02;97408.50;5173695;28;20236;-59
2022/05/31 08:26:10;;;;;;;2.28;1.52;;;24.00;69.10;;;24.95;32.08;97431.19;5164893;28;20216;-59
2022/05/31 08:28:43;;;;;;;1.60;1.50;;;23.80;69.40;;;24.79;32.44;97413.88;5126133;28;20196;-59
2022/05/31 08:31:22;;;;;;;1.67;1.58;;;23.90;68.50;;;24.82;32.99;97406.88;5131779;28;20692;-58
2022/05/31 08:33:55;;;;;;;1.83;1.65;;;23.80;69.70;;;25.01;32.61;97401.50;5165631;28;20586;-59
2022/05/31 08:36:28;;;;;;;1.30;1.30;;;24.10;68.90;;;25.09;31.96;97397.94;5176683;28;20583;-59
2022/05/31 08:39:04;;;;;;;1.70;1.60;;;24.20;68.40;;;25.27;31.62;97394.38;5160668;28;20649;-59
2022/05/31 08:41:44;;;;;;;1.50;1.40;;;24.30;67.60;;;24.98;31.52;97405.03;5168625;28;20196;-58
2022/05/31 08:44:36;;;;;;;1.60;1.50;;;24.00;66.70;;;24.97;32.12;97397.19;5130442;28;20302;-58
2022/05/31 08:47:20;;;;;;;1.67;1.50;;;24.20;67.50;;;25.11;32.51;97390.09;5171565;28;20231;-58
2022/05/31 08:53:10;;;;;;;2.50;1.63;;;24.40;67.30;;;25.49;31.15;97381.06;5145516;28;20201;-59
2022/05/31 08:58:47;;;;;;;1.48;1.38;;;24.90;66.90;;;25.40;31.88;97376.78;5155773;28;20247;-59
2022/05/31 09:01:24;;;;;;;2.15;1.40;;;24.80;65.70;;;25.27;31.17;97380.44;5168457;28;20197;-60
2022/05/31 09:04:11;;;;;;;1.67;1.58;;;24.60;65.00;;;25.10;31.65;97373.56;5167106;28;20607;-60
2022/05/31 09:06:50;;;;;;;1.50;1.40;;;24.50;65.50;;;25.32;32.29;97381.22;5140834;28;20697;-59
2022/05/31 09:09:27;;;;;;;1.60;1.50;;;24.50;66.30;;;25.36;32.15;97381.19;5176903;28;20197;-59
2022/05/31 09:12:13;;;;;;;2.35;1.60;;;24.70;66.60;;;25.09;32.24;97377.03;5165124;28;20258;-59
2022/05/31 09:14:57;;;;;;;1.75;1.50;;;24.10;67.20;;;24.54;32.09;97385.28;5123959;28;20616;-60
2022/05/31 09:17:41;;;;;;;1.90;1.67;;;23.70;66.80;;;24.63;33.08;97371.28;5149114;28;20228;-59
2022/05/31 09:20:18;;;;;;;1.58;1.48;;;23.60;68.90;;;24.61;34.51;97389.59;5147170;28;20232;-59
2022/05/31 09:22:51;;;;;;;1.35;1.20;;;23.50;70.90;;;24.80;33.37;97381.63;5184761;28;20225;-59
2022/05/31 09:25:25;;;;;;;1.58;1.48;;;23.60;70.00;;;24.98;33.40;97389.34;5171828;28;20224;-59
2022/05/31 09:28:07;;;;;;;2.03;1.50;;;23.80;69.90;;;25.05;33.40;97391.03;5159606;28;20670;-59
2022/05/31 09:30:44;;;;;;;2.20;1.40;;;23.80;69.60;;;25.15;33.53;97387.50;5129716;28;20243;-60
2022/05/31 09:33:25;;;;;;;1.85;1.75;;;23.90;69.60;;;25.25;32.80;97387.41;5164167;28;20328;-58
2022/05/31 09:36:16;;;;;;;1.50;1.40;;;23.90;68.60;;;25.19;32.52;97382.25;5158538;28;20551;-59
2022/05/31 09:39:20;;;;;;;1.60;1.50;;;24.00;68.60;;;25.46;32.81;97379.34;5163725;28;20197;-59
2022/05/31 09:42:01;;;;;;;2.20;1.35;;;24.30;68.60;;;25.55;31.90;97386.22;5161017;28;20282;-59
2022/05/31 09:44:41;;;;;;;2.05;1.60;;;24.50;67.60;;;25.35;32.85;97378.56;5133671;28;20239;-59
2022/05/31 09:47:19;;;;;;;1.60;1.50;;;24.40;68.10;;;25.52;32.64;97381.91;5165131;28;20292;-59
2022/05/31 09:49:54;;;;;;;1.80;1.70;;;24.30;68.00;;;25.62;33.61;97383.56;5122470;28;20203;-60
2022/05/31 09:52:38;;;;;;;2.97;1.92;;;24.30;70.20;;;25.83;32.35;97381.63;5129904;28;20207;-56
2022/05/31 09:58:22;;;;;;;1.98;1.50;;;24.80;69.10;;;25.87;33.13;97382.44;5153935;28;20262;-59
2022/05/31 10:01:05;;;;;;;2.33;1.75;;;24.80;69.60;;;25.92;32.56;97381.50;5119749;28;20209;-58
2022/05/31 10:03:44;;;;;;;2.28;2.00;;;24.70;67.90;;;25.72;32.25;97384.31;5114133;28;20687;-59
2022/05/31 10:06:21;;;;;;;1.90;1.70;;;24.70;67.90;;;25.72;32.10;97386.06;5117686;28;20231;-59
2022/05/31 10:08:56;;;;;;;1.90;1.80;;;24.60;67.40;;;25.63;32.36;97390.50;5120933;28;20196;-57
2022/05/31 10:11:34;;;;;;;1.92;1.77;;;24.30;68.10;;;25.68;32.77;97384.38;5129054;28;20242;-57
2022/05/31 10:14:21;;;;;;;1.80;1.70;;;24.30;68.80;;;25.73;32.61;97374.72;5131902;28;20616;-59
2022/05/31 10:16:56;;;;;;;2.08;1.90;;;24.50;68.40;;;25.83;32.99;97371.13;5118785;28;20336;-56
2022/05/31 10:19:31;;;;;;;2.17;1.75;;;24.60;69.70;;;25.92;32.48;97370.16;5117223;28;20200;-58
2022/05/31 10:22:18;;;;;;;3.05;1.80;;;24.80;68.60;;;25.91;32.69;97369.31;5119102;28;20643;-58
2022/05/31 10:24:51;;;;;;;2.22;1.90;;;24.90;68.60;;;25.83;32.84;97364.16;5118140;28;20787;-56
2022/05/31 10:27:29;;;;;;;1.70;1.60;;;24.80;67.80;;;25.82;32.19;97358.91;5113504;28;20323;-59
2022/05/31 10:30:10;;;;;;;3.10;1.98;;;24.70;67.70;;;25.72;33.16;97362.50;5114944;28;20228;-59
2022/05/31 10:32:50;;;;;;;1.77;1.67;;;24.70;69.40;;;25.71;32.41;97364.25;5134650;28;20211;-59
2022/05/31 10:35:27;;;;;;;2.60;2.00;;;24.60;67.30;;;25.53;32.43;97357.47;5162323;28;20192;-57
2022/05/31 10:38:04;;;;;;;2.00;1.90;;;24.40;68.20;;;25.38;32.43;97362.84;5148507;28;20719;-59
2022/05/31 10:40:46;;;;;;;1.52;1.42;;;24.30;67.80;;;25.46;32.34;97358.41;5176362;28;20185;-60
2022/05/31 10:43:38;;;;;;;2.38;1.83;;;24.30;67.00;;;25.55;32.69;97357.44;5168404;28;20660;-56
2022/05/31 10:46:14;;;;;;;1.92;1.80;;;24.40;68.10;;;25.42;33.21;97351.47;5161233;28;20220;-55
2022/05/31 10:48:51;;;;;;;1.88;1.73;;;24.30;69.20;;;25.41;32.41;97352.38;5195853;28;20230;-58
2022/05/31 10:51:44;;;;;;;2.72;1.80;;;24.10;67.20;;;25.24;33.31;97349.91;5130677;28;20188;-59
2022/05/31 10:54:58;;;;;;;2.22;2.00;;;24.10;69.20;;;25.42;33.73;97348.00;5127462;28;20655;-58
2022/05/31 10:57:50;;;;;;;2.10;2.00;;;24.20;69.60;;;25.66;33.30;97357.34;5166833;28;20278;-57
2022/05/31 11:00:44;;;;;;;2.92;1.75;;;24.30;69.30;;;25.44;33.14;97349.72;5170068;28;20208;-57
2022/05/31 11:03:30;;;;;;;2.25;1.80;;;24.30;69.10;;;25.32;33.41;97352.44;5140349;28;20705;-56
2022/05/31 11:06:18;;;;;;;1.90;1.80;;;24.10;69.00;;;25.24;34.31;97349.03;5132628;28;20360;-59
2022/05/31 11:12:11;;;;;;;1.85;1.75;;;23.80;69.20;;;24.99;33.05;97348.38;5140338;28;20797;-55
2022/05/31 11:14:58;;;;;;;2.05;1.83;;;23.60;69.70;;;24.98;33.53;97346.63;5186020;28;20228;-58
2022/05/31 11:17:57;;;;;;;3.13;1.92;;;23.70;69.50;;;24.92;33.47;97343.19;5163767;28;20331;-58
2022/05/31 11:20:38;;;;;;;2.75;2.00;;;23.60;69.70;;;24.92;33.80;97342.31;5133316;28;20306;-60
2022/05/31 11:23:30;;;;;;;2.95;2.17;;;23.50;68.80;;;24.78;34.90;97346.78;5162134;28;20200;-60
2022/05/31 11:26:20;;;;;;;2.40;2.03;;;23.50;71.40;;;24.72;35.70;97353.81;5155542;28;20263;-60
2022/05/31 11:29:37;;;;;;;4.35;2.13;;;23.50;72.50;;;24.65;36.18;97349.50;5203478;28;20617;-59
2022/05/31 11:32:20;;;;;;;2.97;2.10;;;23.50;74.20;;;24.58;37.36;97353.03;5171152;28;20208;-59
2022/05/31 11:35:10;;;;;;;2.60;2.40;;;23.40;76.30;;;24.53;37.34;97353.94;5129399;28;20196;-57